Time;durP1;ratioP1;P1;durP2;ratioP2;P2;SDS_P1;SDS_P2;PMS_P1;PMS_P2;Temp;Humidity;BMP_temperature;BMP_pressure;BME280_temperature;BME280_humidity;BME280_pressure;Samples;Min_cycle;Max_cycle;Signal;HPM_P1;HPM_P2
2022/09/27 00:00:37;;;;;;;;;;;10.40;96.50;;;;;;4871861;29;19923;-88
2022/09/27 00:03:04;;;;;;;;;;;10.40;96.50;;;;;;4884749;29;19928;-87
2022/09/27 00:05:31;;;;;;;;;;;10.40;96.50;;;;;;4881211;29;19927;-86
2022/09/27 00:07:58;;;;;;;;;;;10.40;96.50;;;;;;4874914;29;19923;-86
2022/09/27 00:10:25;;;;;;;;;;;10.40;96.50;;;;;;4865288;29;19943;-89
2022/09/27 00:12:52;;;;;;;;;;;10.40;96.50;;;;;;4869402;29;19939;-88
2022/09/27 00:15:19;;;;;;;;;;;10.30;96.50;;;;;;4853331;29;19966;-87
2022/09/27 00:17:50;;;;;;;;;;;10.30;96.50;;;;;;4870529;29;20337;-87
2022/09/27 00:20:19;;;;;;;;;;;10.30;96.60;;;;;;4879243;29;19956;-86
2022/09/27 00:22:47;;;;;;;;;;;10.30;96.90;;;;;;4869098;29;19966;-86
2022/09/27 00:25:17;;;;;;;;;;;10.30;96.60;;;;;;4870592;29;19965;-87
2022/09/27 00:27:45;;;;;;;;;;;10.20;96.60;;;;;;4876674;29;20029;-87
2022/09/27 00:30:12;;;;;;;;;;;10.20;96.60;;;;;;4879346;29;20380;-87
2022/09/27 00:32:39;;;;;;;;;;;10.20;96.60;;;;;;4869867;29;19930;-86
2022/09/27 00:35:07;;;;;;;;;;;10.20;96.70;;;;;;4892489;29;19931;-87
2022/09/27 00:37:34;;;;;;;;;;;10.20;96.70;;;;;;4885119;29;20404;-87
2022/09/27 00:40:01;;;;;;;;;;;10.20;96.70;;;;;;4885177;29;19923;-87
2022/09/27 00:42:28;;;;;;;;;;;10.10;96.70;;;;;;4893184;29;19924;-87
2022/09/27 00:44:58;;;;;;;;;;;10.20;96.70;;;;;;4868620;29;19973;-87
2022/09/27 00:47:28;;;;;;;;;;;10.20;96.70;;;;;;4884680;29;19928;-85
2022/09/27 00:50:00;;;;;;;;;;;10.10;96.70;;;;;;4885730;29;19927;-88
2022/09/27 00:52:30;;;;;;;;;;;10.20;96.70;;;;;;4886097;29;19949;-88
2022/09/27 00:55:03;;;;;;;;;;;10.10;96.70;;;;;;4884269;29;19938;-88
2022/09/27 00:57:30;;;;;;;;;;;10.10;96.70;;;;;;4889272;29;19931;-88
2022/09/27 00:59:59;;;;;;;;;;;10.10;96.70;;;;;;4876169;29;19966;-87
2022/09/27 01:02:27;;;;;;;;;;;10.10;96.70;;;;;;4885941;29;19927;-88
2022/09/27 01:04:54;;;;;;;;;;;10.20;96.70;;;;;;4875595;29;19930;-88
2022/09/27 01:07:21;;;;;;;;;;;10.20;96.60;;;;;;4875149;29;19982;-87
2022/09/27 01:09:48;;;;;;;;;;;10.10;96.60;;;;;;4895314;29;19927;-87
2022/09/27 01:12:15;;;;;;;;;;;10.10;96.60;;;;;;4883788;29;20361;-87
2022/09/27 01:15:00;;;;;;;;;;;10.10;96.60;;;;;;4869055;29;19923;-87
2022/09/27 01:17:33;;;;;;;;;;;10.10;96.60;;;;;;4878846;29;19927;-86
2022/09/27 01:20:00;;;;;;;;;;;10.10;96.70;;;;;;4872601;29;19975;-87
2022/09/27 01:22:32;;;;;;;;;;;10.10;96.60;;;;;;4886996;29;19927;-87
2022/09/27 01:25:17;;;;;;;;;;;10.20;96.60;;;;;;4880410;29;19924;-88
2022/09/27 01:27:54;;;;;;;;;;;10.20;96.60;;;;;;4875664;29;19924;-87
2022/09/27 01:30:34;;;;;;;;;;;10.20;96.50;;;;;;4876868;29;19923;-86
2022/09/27 01:33:25;;;;;;;;;;;10.10;96.50;;;;;;4883431;29;19923;-87
2022/09/27 01:36:02;;;;;;;;;;;10.10;96.50;;;;;;4879369;29;19986;-86
2022/09/27 01:38:42;;;;;;;;;;;10.00;96.50;;;;;;4849886;29;19931;-88
2022/09/27 01:41:20;;;;;;;;;;;10.00;96.60;;;;;;4874854;29;19931;-87
2022/09/27 01:43:56;;;;;;;;;;;10.00;96.60;;;;;;4899337;29;19938;-88
2022/09/27 01:46:32;;;;;;;;;;;10.00;96.60;;;;;;4892065;29;19923;-88
2022/09/27 01:49:16;;;;;;;;;;;9.90;96.60;;;;;;4876801;29;19924;-87
2022/09/27 01:51:51;;;;;;;;;;;9.90;96.60;;;;;;4880667;29;19923;-88
2022/09/27 01:54:34;;;;;;;;;;;9.90;96.60;;;;;;4889612;29;19931;-89
2022/09/27 01:57:26;;;;;;;;;;;9.90;96.60;;;;;;4879072;29;20296;-88
2022/09/27 02:00:03;;;;;;;;;;;9.80;96.60;;;;;;4895790;29;19950;-89
2022/09/27 02:02:47;;;;;;;;;;;9.80;96.70;;;;;;4904340;29;19923;-89
2022/09/27 02:05:43;;;;;;;;;;;9.70;96.60;;;;;;4903933;29;19930;-88
2022/09/27 02:08:43;;;;;;;;;;;9.70;96.90;;;;;;4871494;29;19999;-89
2022/09/27 02:11:19;;;;;;;;;;;9.70;96.70;;;;;;4867629;29;20333;-88
2022/09/27 02:13:58;;;;;;;;;;;9.60;96.70;;;;;;4864518;29;19962;-87
2022/09/27 02:16:51;;;;;;;;;;;9.60;96.70;;;;;;4907394;29;19971;-88
2022/09/27 02:19:46;;;;;;;;;;;9.60;96.70;;;;;;4884218;29;19928;-88
2022/09/27 02:22:39;;;;;;;;;;;9.60;96.70;;;;;;4871296;29;20376;-88
2022/09/27 02:25:13;;;;;;;;;;;9.50;96.70;;;;;;4864614;29;19933;-87
2022/09/27 02:27:54;;;;;;;;;;;9.50;96.70;;;;;;4892106;29;20038;-88
2022/09/27 02:30:25;;;;;;;;;;;9.50;96.70;;;;;;4877391;29;19923;-88
2022/09/27 02:33:00;;;;;;;;;;;9.50;96.80;;;;;;4862167;29;19923;-86
2022/09/27 02:35:30;;;;;;;;;;;9.40;96.70;;;;;;4867448;29;20006;-87
2022/09/27 02:37:57;;;;;;;;;;;9.40;96.80;;;;;;4874884;29;19923;-87
2022/09/27 02:40:28;;;;;;;;;;;9.40;96.80;;;;;;4876477;29;19923;-86
2022/09/27 02:42:56;;;;;;;;;;;9.40;96.80;;;;;;4885539;29;20353;-86
2022/09/27 02:45:29;;;;;;;;;;;9.40;96.80;;;;;;4879303;29;19927;-86
2022/09/27 02:48:17;;;;;;;;;;;9.40;96.80;;;;;;4870747;29;19929;-86
2022/09/27 02:50:44;;;;;;;;;;;9.30;96.80;;;;;;4886988;29;19966;-86
2022/09/27 02:53:40;;;;;;;;;;;9.30;96.80;;;;;;4869147;29;19923;-86
2022/09/27 02:56:32;;;;;;;;;;;9.30;96.80;;;;;;4906293;29;20001;-87
2022/09/27 02:59:18;;;;;;;;;;;9.30;96.80;;;;;;4884233;29;19927;-87
2022/09/27 03:02:11;;;;;;;;;;;9.30;96.80;;;;;;4881442;29;20271;-86
2022/09/27 03:05:07;;;;;;;;;;;9.30;96.80;;;;;;4862029;29;19924;-86
2022/09/27 03:07:34;;;;;;;;;;;9.30;96.80;;;;;;4862907;29;19931;-87
2022/09/27 03:10:02;;;;;;;;;;;9.30;96.80;;;;;;4857512;29;20029;-86
2022/09/27 03:12:29;;;;;;;;;;;9.20;96.80;;;;;;4852169;29;19924;-86
2022/09/27 03:14:58;;;;;;;;;;;9.20;96.80;;;;;;4850267;29;19930;-87
2022/09/27 03:17:43;;;;;;;;;;;9.20;96.80;;;;;;4869295;29;20015;-87
2022/09/27 03:20:40;;;;;;;;;;;9.20;96.80;;;;;;4855549;29;19923;-86
2022/09/27 03:23:13;;;;;;;;;;;9.20;96.80;;;;;;4841712;29;19946;-86
2022/09/27 03:25:40;;;;;;;;;;;9.20;96.80;;;;;;4882565;29;19931;-86
2022/09/27 03:28:10;;;;;;;;;;;9.30;96.80;;;;;;4878674;29;19924;-87
2022/09/27 03:30:38;;;;;;;;;;;9.30;96.70;;;;;;4880985;29;19927;-87
2022/09/27 03:33:05;;;;;;;;;;;9.30;96.70;;;;;;4856139;29;19977;-86
2022/09/27 03:35:41;;;;;;;;;;;9.30;96.70;;;;;;4870558;29;19984;-88
2022/09/27 03:38:09;;;;;;;;;;;9.30;96.70;;;;;;4863929;29;20333;-89
2022/09/27 03:40:39;;;;;;;;;;;9.30;96.70;;;;;;4861984;29;20368;-89
2022/09/27 03:43:07;;;;;;;;;;;9.30;96.70;;;;;;4849874;29;20035;-89
2022/09/27 03:45:34;;;;;;;;;;;9.30;96.70;;;;;;4863714;29;19923;-88
2022/09/27 03:48:05;;;;;;;;;;;9.30;96.70;;;;;;4864187;29;19928;-88
2022/09/27 03:50:33;;;;;;;;;;;9.30;96.70;;;;;;4879599;29;20097;-89
2022/09/27 03:53:00;;;;;;;;;;;9.20;96.70;;;;;;4867074;29;19946;-88
2022/09/27 03:55:27;;;;;;;;;;;9.20;96.70;;;;;;4882184;29;19923;-88
2022/09/27 03:57:54;;;;;;;;;;;9.20;96.70;;;;;;4866568;29;19923;-88
2022/09/27 04:00:21;;;;;;;;;;;9.20;96.70;;;;;;4863651;29;19953;-87
2022/09/27 04:02:48;;;;;;;;;;;9.20;96.70;;;;;;4863495;29;19924;-89
2022/09/27 04:05:22;;;;;;;;;;;9.20;96.70;;;;;;4864580;29;20003;-89
2022/09/27 04:07:55;;;;;;;;;;;9.20;96.70;;;;;;4832021;29;19931;-87
2022/09/27 04:10:22;;;;;;;;;;;9.20;96.80;;;;;;4856923;29;19924;-87
2022/09/27 04:12:50;;;;;;;;;;;9.20;96.80;;;;;;4863666;29;19935;-86
2022/09/27 04:15:20;;;;;;;;;;;9.30;96.80;;;;;;4857778;29;20392;-88
2022/09/27 04:17:47;;;;;;;;;;;9.30;96.70;;;;;;4865327;29;19980;-88
2022/09/27 04:20:35;;;;;;;;;;;9.40;96.90;;;;;;4858282;29;20024;-88
2022/09/27 04:23:08;;;;;;;;;;;9.40;96.60;;;;;;4867787;29;19963;-87
2022/09/27 04:25:39;;;;;;;;;;;9.40;96.60;;;;;;4867271;29;19924;-88
2022/09/27 04:28:35;;;;;;;;;;;9.40;96.60;;;;;;4803802;29;19924;-88
2022/09/27 04:31:03;;;;;;;;;;;9.50;96.50;;;;;;4814950;29;19925;-88
2022/09/27 04:34:05;;;;;;;;;;;9.50;96.50;;;;;;4848034;29;19924;-88
2022/09/27 04:36:34;;;;;;;;;;;9.50;96.50;;;;;;4848532;29;19927;-88
2022/09/27 04:39:06;;;;;;;;;;;9.50;96.50;;;;;;4862178;29;19971;-88
2022/09/27 04:41:36;;;;;;;;;;;9.40;96.40;;;;;;4854431;29;19931;-88
2022/09/27 04:44:05;;;;;;;;;;;9.40;96.40;;;;;;4847862;29;19924;-88
2022/09/27 04:46:33;;;;;;;;;;;9.40;96.50;;;;;;4850106;29;19934;-89
2022/09/27 04:49:01;;;;;;;;;;;9.40;96.50;;;;;;4866513;29;19936;-89
2022/09/27 04:51:30;;;;;;;;;;;9.40;96.50;;;;;;4869584;29;20390;-89
2022/09/27 04:53:57;;;;;;;;;;;9.40;96.50;;;;;;4860132;29;20301;-89
2022/09/27 04:56:37;;;;;;;;;;;9.40;96.50;;;;;;4857486;29;19931;-88
2022/09/27 04:59:06;;;;;;;;;;;9.30;96.50;;;;;;4861101;29;19923;-89
2022/09/27 05:01:38;;;;;;;;;;;9.30;96.50;;;;;;4863196;29;19924;-89
2022/09/27 05:04:38;;;;;;;;;;;9.30;96.60;;;;;;4825120;29;19923;-88
2022/09/27 05:07:08;;;;;;;;;;;9.20;96.60;;;;;;4856711;29;20022;-88
2022/09/27 05:09:41;;;;;;;;;;;9.20;96.60;;;;;;4864637;29;19924;-88
2022/09/27 05:12:08;;;;;;;;;;;9.20;96.60;;;;;;4893454;29;20373;-88
2022/09/27 05:14:36;;;;;;;;;;;9.20;96.60;;;;;;4861787;29;19928;-89
2022/09/27 05:17:19;;;;;;;;;;;9.20;96.60;;;;;;4867436;29;19931;-89
2022/09/27 05:20:05;;;;;;;;;;;9.20;96.60;;;;;;4862089;29;20042;-89
2022/09/27 05:22:58;;;;;;;;;;;9.20;96.60;;;;;;4881002;29;19924;-89
2022/09/27 05:25:25;;;;;;;;;;;9.20;96.60;;;;;;4859596;29;19924;-89
2022/09/27 05:27:53;;;;;;;;;;;9.20;96.60;;;;;;4884094;29;19923;-88
2022/09/27 05:30:20;;;;;;;;;;;9.20;96.60;;;;;;4900194;29;19923;-89
2022/09/27 05:32:51;;;;;;;;;;;9.10;96.60;;;;;;4872823;29;19930;-89
2022/09/27 05:35:46;;;;;;;;;;;9.10;96.60;;;;;;4852948;29;19928;-89
2022/09/27 05:38:15;;;;;;;;;;;9.10;96.50;;;;;;4867584;29;20384;-90
2022/09/27 05:40:49;;;;;;;;;;;9.10;96.50;;;;;;4857666;29;20014;-89
2022/09/27 05:43:20;;;;;;;;;;;9.10;96.50;;;;;;4871299;29;19928;-89
2022/09/27 05:45:51;;;;;;;;;;;9.10;96.50;;;;;;4876603;29;19934;-89
2022/09/27 05:48:21;;;;;;;;;;;9.10;96.40;;;;;;4863136;29;19923;-88
2022/09/27 05:51:05;;;;;;;;;;;9.10;96.40;;;;;;4872645;29;20294;-89
2022/09/27 05:53:35;;;;;;;;;;;9.00;96.40;;;;;;4881642;29;19971;-88
2022/09/27 05:56:05;;;;;;;;;;;9.00;96.40;;;;;;4846551;29;19943;-88
2022/09/27 05:59:01;;;;;;;;;;;9.00;96.40;;;;;;4887576;29;19927;-89
2022/09/27 06:01:47;;;;;;;;;;;9.00;96.40;;;;;;4868119;29;19924;-89
2022/09/27 06:04:42;;;;;;;;;;;9.00;96.50;;;;;;4865153;29;19947;-89
2022/09/27 06:07:45;;;;;;;;;;;9.00;96.40;;;;;;4861571;29;19924;-87
2022/09/27 06:10:17;;;;;;;;;;;9.10;96.40;;;;;;4859573;29;20329;-86
2022/09/27 06:12:45;;;;;;;;;;;9.10;96.40;;;;;;4856155;29;19928;-87
2022/09/27 06:15:31;;;;;;;;;;;9.20;96.40;;;;;;4866393;29;19931;-86
2022/09/27 06:18:09;;;;;;;;;;;9.20;96.30;;;;;;4850087;29;19983;-88
2022/09/27 06:20:39;;;;;;;;;;;9.30;96.30;;;;;;4863845;29;19930;-89
2022/09/27 06:23:08;;;;;;;;;;;9.30;96.30;;;;;;4849264;29;19927;-89
2022/09/27 06:25:36;;;;;;;;;;;9.40;96.20;;;;;;4853814;29;20342;-86
2022/09/27 06:28:21;;;;;;;;;;;9.40;96.20;;;;;;4868260;29;19931;-88
2022/09/27 06:30:51;;;;;;;;;;;9.40;96.20;;;;;;4868732;29;19927;-88
2022/09/27 06:33:31;;;;;;;;;;;9.40;96.20;;;;;;4832929;29;19999;-88
2022/09/27 06:36:02;;;;;;;;;;;9.40;96.20;;;;;;4845888;29;20377;-88
2022/09/27 06:38:29;;;;;;;;;;;9.50;96.20;;;;;;4846031;29;20019;-89
2022/09/27 06:41:19;;;;;;;;;;;9.60;96.20;;;;;;4850598;29;19980;-90
2022/09/27 06:44:05;;;;;;;;;;;9.70;96.10;;;;;;4853672;29;19927;-90
2022/09/27 06:46:48;;;;;;;;;;;9.80;96.00;;;;;;4881060;29;20351;-89
2022/09/27 06:49:30;;;;;;;;;;;9.80;95.90;;;;;;4872275;29;19983;-89
2022/09/27 06:51:59;;;;;;;;;;;9.80;95.90;;;;;;4849266;29;20018;-89
2022/09/27 06:54:27;;;;;;;;;;;9.80;96.00;;;;;;4858109;29;19972;-91
2022/09/27 06:56:54;;;;;;;;;;;9.80;95.90;;;;;;4843736;29;19927;-89
2022/09/27 07:02:32;;;;;;;;;;;10.00;95.80;;;;;;4882614;29;19935;-90
2022/09/27 07:05:37;;;;;;;;;;;10.00;95.60;;;;;;4865987;29;20014;-91
2022/09/27 07:08:18;;;;;;;;;;;10.00;95.60;;;;;;4867965;29;19975;-88
2022/09/27 07:10:45;;;;;;;;;;;10.20;95.60;;;;;;4848948;29;20392;-89
2022/09/27 07:13:12;;;;;;;;;;;10.30;95.50;;;;;;4868122;29;20030;-89
2022/09/27 07:15:40;;;;;;;;;;;10.50;95.30;;;;;;4869210;29;20440;-93
2022/09/27 07:18:11;;;;;;;;;;;10.40;95.20;;;;;;4861690;29;19991;-91
2022/09/27 07:20:39;;;;;;;;;;;10.40;95.20;;;;;;4867643;29;19923;-91
2022/09/27 07:23:06;;;;;;;;;;;10.30;95.30;;;;;;4866641;29;19924;-90
2022/09/27 07:25:34;;;;;;;;;;;10.20;95.40;;;;;;4866711;29;20019;-90
2022/09/27 07:28:07;;;;;;;;;;;10.20;95.60;;;;;;4864703;29;19972;-90
2022/09/27 07:30:36;;;;;;;;;;;10.10;95.60;;;;;;4864379;29;19923;-89
2022/09/27 07:33:04;;;;;;;;;;;10.10;95.70;;;;;;4835773;29;19934;-89
2022/09/27 07:35:31;;;;;;;;;;;10.10;95.80;;;;;;4867963;29;19924;-88
2022/09/27 07:37:58;;;;;;;;;;;10.10;95.90;;;;;;4862905;29;20364;-88
2022/09/27 07:40:30;;;;;;;;;;;10.10;95.90;;;;;;4863895;29;19976;-87
2022/09/27 07:42:58;;;;;;;;;;;10.10;95.90;;;;;;4850391;29;19924;-86
2022/09/27 07:45:25;;;;;;;;;;;10.10;96.00;;;;;;4880537;29;19931;-87
2022/09/27 07:48:11;;;;;;;;;;;10.20;95.90;;;;;;4867196;29;20036;-86
2022/09/27 07:50:57;;;;;;;;;;;10.30;95.90;;;;;;4881329;29;19930;-87
2022/09/27 07:53:53;;;;;;;;;;;10.40;95.90;;;;;;4828523;29;19930;-87
2022/09/27 07:56:56;;;;;;;;;;;10.50;95.70;;;;;;4866935;29;19934;-88
2022/09/27 07:59:23;;;;;;;;;;;10.50;95.70;;;;;;4844160;29;20399;-87
2022/09/27 08:01:52;;;;;;;;;;;10.60;95.70;;;;;;4884529;29;19962;-86
2022/09/27 08:04:19;;;;;;;;;;;10.60;95.70;;;;;;4882015;29;19923;-90
2022/09/27 08:06:46;;;;;;;;;;;10.60;95.60;;;;;;4888294;29;19928;-88
2022/09/27 08:09:13;;;;;;;;;;;10.60;95.70;;;;;;4870909;29;19923;-86
2022/09/27 08:11:44;;;;;;;;;;;10.60;95.60;;;;;;4882195;29;20440;-85
2022/09/27 08:14:15;;;;;;;;;;;10.60;95.70;;;;;;4874690;29;19929;-88
2022/09/27 08:16:50;;;;;;;;;;;10.70;95.70;;;;;;4871144;29;19950;-91
2022/09/27 08:19:26;;;;;;;;;;;10.80;95.60;;;;;;4887218;29;20014;-89
2022/09/27 08:21:53;;;;;;;;;;;10.70;95.60;;;;;;4902592;29;20387;-90
2022/09/27 08:24:33;;;;;;;;;;;10.70;95.60;;;;;;4887388;29;20359;-91
2022/09/27 08:27:16;;;;;;;;;;;10.70;95.60;;;;;;4885405;29;20359;-88
2022/09/27 08:29:51;;;;;;;;;;;10.80;95.60;;;;;;4871522;29;19923;-87
2022/09/27 08:32:18;;;;;;;;;;;10.70;95.50;;;;;;4884833;29;20025;-86
2022/09/27 08:34:50;;;;;;;;;;;10.70;95.60;;;;;;4874654;29;19923;-87
2022/09/27 08:37:19;;;;;;;;;;;10.70;95.60;;;;;;4875344;29;19991;-87
2022/09/27 08:39:48;;;;;;;;;;;10.70;95.60;;;;;;4900467;29;19923;-85
2022/09/27 08:42:40;;;;;;;;;;;10.70;95.60;;;;;;4879685;29;19917;-86
2022/09/27 08:45:12;;;;;;;;;;;10.60;95.60;;;;;;4879312;29;19955;-86
2022/09/27 08:47:42;;;;;;;;;;;10.50;95.70;;;;;;4887548;29;19923;-87
2022/09/27 08:50:22;;;;;;;;;;;10.50;95.80;;;;;;4887362;29;19923;-88
2022/09/27 08:52:59;;;;;;;;;;;10.50;95.80;;;;;;4891736;29;19923;-86
2022/09/27 08:55:31;;;;;;;;;;;10.50;95.80;;;;;;4884084;29;19929;-87
2022/09/27 08:57:58;;;;;;;;;;;10.50;95.80;;;;;;4883907;29;19924;-86
2022/09/27 09:00:27;;;;;;;;;;;10.60;95.80;;;;;;4868606;29;19924;-86
2022/09/27 09:03:17;;;;;;;;;;;10.70;95.70;;;;;;4872105;29;19923;-87
2022/09/27 09:06:08;;;;;;;;;;;10.80;95.60;;;;;;4877496;29;19942;-87
2022/09/27 09:08:42;;;;;;;;;;;10.90;95.60;;;;;;4900508;29;19955;-87
2022/09/27 09:14:23;;;;;;;;;;;11.00;95.50;;;;;;4905115;29;20023;-88
2022/09/27 09:17:18;;;;;;;;;;;11.10;95.40;;;;;;4886493;29;19927;-87
2022/09/27 09:20:13;;;;;;;;;;;11.10;95.40;;;;;;4869646;29;19923;-87
2022/09/27 09:23:13;;;;;;;;;;;11.10;95.30;;;;;;4879912;29;19986;-88
2022/09/27 09:26:04;;;;;;;;;;;11.20;95.30;;;;;;4872260;29;19959;-86
2022/09/27 09:28:37;;;;;;;;;;;11.20;95.30;;;;;;4896791;29;19951;-86
2022/09/27 09:31:22;;;;;;;;;;;11.20;95.10;;;;;;4883999;29;19934;-86
2022/09/27 09:33:53;;;;;;;;;;;11.20;95.20;;;;;;4884240;29;20296;-87
2022/09/27 09:36:37;;;;;;;;;;;11.00;94.90;;;;;;4880169;29;19923;-88
2022/09/27 09:39:09;;;;;;;;;;;10.90;95.10;;;;;;4892193;29;19927;-91
2022/09/27 09:41:41;;;;;;;;;;;10.80;95.20;;;;;;4872457;29;20050;-90
2022/09/27 09:44:47;;;;;;;;;;;10.70;95.30;;;;;;4883890;29;20010;-88
2022/09/27 09:47:24;;;;;;;;;;;10.60;95.30;;;;;;4809217;29;19929;-90
2022/09/27 09:49:54;;;;;;;;;;;10.60;95.50;;;;;;4837413;29;19924;-89
2022/09/27 09:52:26;;;;;;;;;;;10.50;95.60;;;;;;4868640;29;19931;-90
2022/09/27 09:55:01;;;;;;;;;;;10.50;95.70;;;;;;4876678;29;19923;-91
2022/09/27 09:57:42;;;;;;;;;;;10.50;95.80;;;;;;4884033;29;19953;-90
2022/09/27 10:00:17;;;;;;;;;;;10.40;95.80;;;;;;4902936;29;19954;-89
2022/09/27 10:02:53;;;;;;;;;;;10.50;95.90;;;;;;4877707;29;19931;-89
2022/09/27 10:05:22;;;;;;;;;;;10.60;95.80;;;;;;4865229;29;19927;-89
2022/09/27 10:07:58;;;;;;;;;;;10.70;95.70;;;;;;4875006;29;20287;-89
2022/09/27 10:10:26;;;;;;;;;;;10.70;95.70;;;;;;4868350;29;19928;-88
2022/09/27 10:13:09;;;;;;;;;;;10.80;95.60;;;;;;4886547;29;20349;-90
2022/09/27 10:15:38;;;;;;;;;;;10.80;95.50;;;;;;4878653;29;19973;-88
2022/09/27 10:18:10;;;;;;;;;;;10.70;95.50;;;;;;4883765;29;19923;-88
2022/09/27 10:20:40;;;;;;;;;;;10.60;95.50;;;;;;4881172;29;19979;-88
2022/09/27 10:23:18;;;;;;;;;;;10.60;95.50;;;;;;4886287;29;19927;-88
2022/09/27 10:26:07;;;;;;;;;;;10.50;95.60;;;;;;4898103;29;20013;-89
2022/09/27 10:28:49;;;;;;;;;;;10.50;95.60;;;;;;4872607;29;19923;-89
2022/09/27 10:31:34;;;;;;;;;;;10.50;95.70;;;;;;4869177;29;19980;-90
2022/09/27 10:34:23;;;;;;;;;;;10.50;95.90;;;;;;4891997;29;19924;-88
2022/09/27 10:37:21;;;;;;;;;;;10.50;95.70;;;;;;4871009;29;19927;-89
2022/09/27 10:40:32;;;;;;;;;;;10.50;95.60;;;;;;4883540;29;19938;-91
2022/09/27 10:43:22;;;;;;;;;;;10.60;95.60;;;;;;4878131;29;20412;-91
2022/09/27 10:46:11;;;;;;;;;;;10.60;95.60;;;;;;4887308;29;20260;-88
2022/09/27 10:48:44;;;;;;;;;;;10.70;95.50;;;;;;4850354;29;19979;-90
2022/09/27 10:51:22;;;;;;;;;;;10.70;95.50;;;;;;4877948;29;20383;-88
2022/09/27 10:53:50;;;;;;;;;;;10.70;95.50;;;;;;4881105;29;20371;-88
2022/09/27 10:56:29;;;;;;;;;;;10.80;95.50;;;;;;4884348;29;19930;-89
2022/09/27 10:58:58;;;;;;;;;;;10.90;95.50;;;;;;4893813;29;19923;-89
2022/09/27 11:01:44;;;;;;;;;;;10.90;95.30;;;;;;4886305;29;20373;-88
2022/09/27 11:04:33;;;;;;;;;;;10.90;95.30;;;;;;4884061;29;19923;-89
2022/09/27 11:07:22;;;;;;;;;;;10.90;95.20;;;;;;4886009;29;19929;-90
2022/09/27 11:10:01;;;;;;;;;;;10.90;95.10;;;;;;4876399;29;19967;-90
2022/09/27 11:12:35;;;;;;;;;;;10.80;94.90;;;;;;4867421;29;20383;-91
2022/09/27 11:15:07;;;;;;;;;;;10.80;95.00;;;;;;4885121;29;19924;-91
2022/09/27 11:17:50;;;;;;;;;;;10.90;95.00;;;;;;4874173;29;19947;-92
2022/09/27 11:20:37;;;;;;;;;;;10.90;94.90;;;;;;4873419;29;19931;-91
2022/09/27 11:23:20;;;;;;;;;;;11.00;94.90;;;;;;4873838;29;19979;-91
2022/09/27 11:25:54;;;;;;;;;;;11.00;94.80;;;;;;4892750;29;20359;-90
2022/09/27 11:28:22;;;;;;;;;;;10.90;94.70;;;;;;4870339;29;20261;-90
2022/09/27 11:31:02;;;;;;;;;;;10.90;94.70;;;;;;4888379;29;19931;-89
2022/09/27 11:33:51;;;;;;;;;;;10.90;94.60;;;;;;4868179;29;19923;-89
2022/09/27 11:36:19;;;;;;;;;;;11.00;94.70;;;;;;4866510;29;19922;-90
2022/09/27 11:38:55;;;;;;;;;;;11.10;94.60;;;;;;4905700;29;19922;-91
2022/09/27 11:41:40;;;;;;;;;;;11.20;94.50;;;;;;4903670;29;19930;-85
2022/09/27 11:44:13;;;;;;;;;;;11.30;94.40;;;;;;4882630;29;19930;-91
2022/09/27 11:46:44;;;;;;;;;;;11.40;94.40;;;;;;4885034;29;19930;-89
2022/09/27 11:49:31;;;;;;;;;;;11.40;94.20;;;;;;4875017;29;19923;-87
2022/09/27 11:52:09;;;;;;;;;;;11.40;94.00;;;;;;4885960;29;20375;-89
2022/09/27 11:54:39;;;;;;;;;;;11.40;93.90;;;;;;4870913;29;19971;-91
2022/09/27 11:58:27;;;;;;;1.58;0.38;;;11.40;93.70;;;;;;5113551;27;20351;-88
2022/09/27 12:01:27;;;;;;;0.60;0.17;;;11.50;93.70;;;;;;5093261;28;20043;-89
2022/09/27 12:04:21;;;;;;;1.30;0.20;;;11.40;93.60;;;;;;5076998;28;20068;-89
2022/09/27 12:07:00;;;;;;;1.65;0.20;;;11.30;93.50;;;;;;5081689;28;20810;-88
2022/09/27 12:09:34;;;;;;;1.75;0.50;;;11.30;93.60;;;;;;5075347;28;20063;-89
2022/09/27 12:12:09;;;;;;;1.05;0.20;;;11.20;93.50;;;;;;5075635;28;20079;-91
2022/09/27 12:14:49;;;;;;;0.55;0.20;;;11.20;93.50;;;;;;5075506;28;20146;-89
2022/09/27 12:17:41;;;;;;;2.53;0.30;;;11.20;93.30;;;;;;5092486;28;20047;-91
2022/09/27 12:20:33;;;;;;;4.72;0.47;;;11.20;93.20;;;;;;5061134;28;20048;-90
2022/09/27 12:23:16;;;;;;;;;;;11.10;93.30;;;;;;5073842;28;20045;-90
2022/09/27 12:26:49;;;;;;;0.82;0.20;;;11.10;93.40;;;;;;4997468;28;20058;-92
2022/09/27 12:29:25;;;;;;;0.68;0.28;;;11.20;93.60;;;;;;4992903;28;20042;-89
2022/09/27 12:32:21;;;;;;;1.60;0.10;;;11.30;93.40;;;;;;4973557;28;20187;-91
2022/09/27 12:35:23;;;;;;;0.68;0.17;;;11.40;93.30;;;;;;4973955;28;20058;-90
2022/09/27 12:38:11;;;;;;;0.90;0.20;;;11.40;93.30;;;;;;4984323;28;20050;-88
2022/09/27 12:41:05;;;;;;;;;;;;;;;;;;;;;
2022/09/27 12:44:24;;;;;;;;;;;;;;;;;;;;;
2022/09/27 12:47:45;;;;;;;1.98;0.20;;;11.30;92.80;;;;;;5076566;28;20048;-94
2022/09/27 12:50:41;;;;;;;1.25;0.10;;;11.20;93.00;;;;;;5077088;28;20043;-90
2022/09/27 12:53:40;;;;;;;0.30;0.10;;;11.30;93.10;;;;;;5074186;28;20044;-94
2022/09/27 12:56:34;;;;;;;0.43;0.20;;;11.30;93.10;;;;;;5050689;28;20091;-91
2022/09/27 12:59:10;;;;;;;0.43;0.10;;;11.40;93.10;;;;;;5062568;28;20052;-93
2022/09/27 13:02:06;;;;;;;1.33;0.22;;;11.30;92.90;;;;;;5069835;28;20368;-93
2022/09/27 13:05:09;;;;;;;1.90;0.20;;;11.50;92.90;;;;;;5035409;28;20056;-93
2022/09/27 13:08:08;;;;;;;2.17;0.52;;;11.40;92.80;;;;;;5033740;28;20044;-90
2022/09/27 13:11:05;;;;;;;1.55;0.50;;;11.30;92.70;;;;;;5023430;28;20120;-89
2022/09/27 13:13:57;;;;;;;1.33;0.40;;;11.10;92.80;;;;;;5031147;28;20041;-86
2022/09/27 13:16:28;;;;;;;1.65;0.43;;;10.90;93.00;;;;;;5036907;28;20068;-87
2022/09/27 13:19:03;;;;;;;1.80;0.50;;;10.80;93.00;;;;;;5036917;28;20049;-87
2022/09/27 13:21:46;;;;;;;1.85;0.40;;;10.70;93.10;;;;;;5030193;28;20049;-89
2022/09/27 13:24:40;;;;;;;2.53;0.40;;;10.70;93.10;;;;;;5038569;28;20045;-89
2022/09/27 13:27:34;;;;;;;2.28;0.38;;;10.70;93.30;;;;;;5041387;28;20071;-88
2022/09/27 13:30:11;;;;;;;1.17;0.57;;;10.60;93.30;;;;;;5002333;28;20473;-89
2022/09/27 13:33:07;;;;;;;4.22;0.30;;;10.60;93.30;;;;;;5010749;28;20045;-89
2022/09/27 13:36:15;;;;;;;1.27;0.20;;;10.50;93.40;;;;;;5014838;28;20053;-87
2022/09/27 13:39:13;;;;;;;1.67;0.10;;;10.40;93.60;;;;;;5013139;28;20046;-85
2022/09/27 13:42:30;;;;;;;0.70;0.20;;;10.40;93.70;;;;;;5029041;28;20473;-86
2022/09/27 13:45:12;;;;;;;0.40;0.10;;;10.40;93.60;;;;;;5037542;28;20131;-85
2022/09/27 13:47:46;;;;;;;0.32;0.22;;;10.40;93.70;;;;;;5012957;28;20077;-90
2022/09/27 13:50:28;;;;;;;1.38;0.20;;;10.40;93.80;;;;;;5051708;28;20049;-88
2022/09/27 13:53:14;;;;;;;0.90;0.20;;;10.40;93.80;;;;;;5022813;28;20056;-89
2022/09/27 13:55:48;;;;;;;0.90;0.10;;;10.50;93.70;;;;;;5022260;28;20049;-90
2022/09/27 13:58:53;;;;;;;1.75;0.15;;;10.50;93.70;;;;;;5038318;28;20045;-91
2022/09/27 14:01:44;;;;;;;0.50;0.10;;;10.50;93.80;;;;;;5031874;28;20048;-89
2022/09/27 14:04:46;;;;;;;0.50;0.20;;;10.40;93.80;;;;;;5021366;28;20041;-89
2022/09/27 14:07:35;;;;;;;0.90;0.13;;;10.50;93.80;;;;;;5033266;28;20045;-90
2022/09/27 14:10:21;;;;;;;1.05;0.10;;;10.50;93.80;;;;;;5021553;28;20059;-89
2022/09/27 14:12:54;;;;;;;1.10;0.10;;;10.70;93.70;;;;;;5037851;28;20053;-89
2022/09/27 14:15:28;;;;;;;1.45;0.10;;;10.70;93.60;;;;;;5037255;28;20041;-90
2022/09/27 14:17:58;;;;;;;1.45;0.20;;;10.80;93.60;;;;;;5052593;28;20045;-87
2022/09/27 14:20:37;;;;;;;0.15;0.03;;;10.90;93.70;;;;;;5051556;28;20099;-87
2022/09/27 14:23:52;;;;;;;0.10;0.00;;;11.00;93.60;;;;;;5021708;28;20404;-90
2022/09/27 14:26:27;;;;;;;1.08;0.10;;;11.20;93.50;;;;;;5038357;28;20056;-89
2022/09/27 14:29:21;;;;;;;1.70;0.08;;;11.20;93.40;;;;;;5030731;28;20055;-92
2022/09/27 14:32:16;;;;;;;1.08;0.10;;;11.20;93.40;;;;;;5020910;28;20132;-93
2022/09/27 14:38:18;;;;;;;0.38;0.10;;;11.30;93.40;;;;;;5038199;28;20638;-90
2022/09/27 14:41:09;;;;;;;0.40;0.08;;;11.30;93.30;;;;;;5024923;28;20133;-91
2022/09/27 14:43:49;;;;;;;0.38;0.10;;;11.30;93.20;;;;;;5036613;28;20040;-92
2022/09/27 14:46:30;;;;;;;2.80;0.30;;;11.30;93.20;;;;;;5043154;28;20129;-93
2022/09/27 14:48:58;;;;;;;0.05;0.00;;;11.40;93.20;;;;;;5036800;28;20077;-88
2022/09/27 14:51:30;;;;;;;0.20;0.00;;;11.40;93.20;;;;;;5021386;28;20539;-89
2022/09/27 14:54:02;;;;;;;0.55;0.08;;;11.50;93.10;;;;;;5016852;28;20037;-87
2022/09/27 14:56:36;;;;;;;0.28;0.10;;;11.60;93.10;;;;;;5044554;28;20147;-92
2022/09/27 14:59:14;;;;;;;0.30;0.10;;;11.60;93.10;;;;;;5056629;28;20110;-87
2022/09/27 15:01:51;;;;;;;0.30;0.10;;;11.70;93.10;;;;;;5047435;28;20477;-86
2022/09/27 15:04:22;;;;;;;0.65;0.10;;;11.70;93.00;;;;;;5039374;28;20139;-87
2022/09/27 15:06:52;;;;;;;0.10;0.10;;;11.60;93.10;;;;;;5055803;28;20048;-88
2022/09/27 15:09:20;;;;;;;0.00;0.00;;;11.60;93.10;;;;;;5039790;28;20054;-88
2022/09/27 15:11:59;;;;;;;2.10;0.08;;;11.50;93.10;;;;;;5055877;28;20442;-87
2022/09/27 15:14:31;;;;;;;0.40;0.08;;;11.50;93.10;;;;;;5024917;28;20044;-91
2022/09/27 15:20:52;;;;;;;0.40;0.10;;;11.30;93.20;;;;;;5022331;28;20050;-95